Flight Track Log - Related Links

Times and Time Zones

All times are in EDT time to prevent confusion due to time zone crossing. See the CPT8773 flight status page for this flight to view local times or setup timezone preferences in your user account.

Time Position Orientation Groundspeed Altitude Reporting Facility
EDT Latitude Longitude Course Direction KTS MPH feet Rate Location/Type
Mon 08:59:06 AM 42.9400 -106.5069 45° Northeast 120 138 7,000  Level Denver Center
Mon 09:00:07 AM 42.9739 -106.5131 352° North 124 143 7,700 590 Climbing Denver Center
Mon 09:01:08 AM 43.0056 -106.5192 352° North 123 142 8,200 541 Climbing Denver Center
Mon 09:02:09 AM 43.0428 -106.5253 353° North 122 140 8,800 590 Climbing Denver Center
Mon 09:03:00 AM 42.9237 -106.4427 45° Northeast  Level FlightAware Approximate
Mon 09:03:10 AM 43.0753 -106.5325 351° North 122 140 9,400  Level Denver Center
Mon 09:04:00 AM 42.9492 -106.4074 45° Northeast  Level FlightAware Approximate
Mon 09:04:11 AM 43.1078 -106.5403 350° North 123 142 9,900  Level Denver Center
Mon 09:05:12 AM 43.1456 -106.5464 353° North 122 140 10,600 595 Climbing Denver Center
Mon 09:06:12 AM 43.1758 -106.5519 352° North 119 137 11,100 446 Climbing Denver Center
Mon 09:07:13 AM 43.2025 -106.5592 349° North 122 140 11,500 443 Climbing Denver Center
Mon 09:08:14 AM 43.2447 -106.5739 346° North 123 142 12,000 295 Climbing Denver Center
Mon 09:09:15 AM 43.2683 -106.6097 312° West 132 152 12,100 49 Climbing Denver Center
Mon 09:10:16 AM 43.2875 -106.6519 302° West 135 155 12,100  Level Denver Center
Mon 09:11:17 AM 43.3139 -106.7014 306° West 143 165 12,100  Level Denver Center
Mon 09:12:18 AM 43.3364 -106.7425 307° West 142 163 12,100  Level Denver Center
Mon 09:13:19 AM 43.3578 -106.7836 306° West 139 160 12,100  Level Denver Center
Mon 09:14:20 AM 43.3844 -106.8331 307° West 144 166 12,100  Level Denver Center
Mon 09:15:21 AM 43.4056 -106.8728 306° West 137 158 12,100  Level Denver Center
Mon 09:16:22 AM 43.4294 -106.9167 307° West 144 166 12,100  Level Denver Center
Mon 09:17:23 AM 43.4539 -106.9636 306° West 136 157 12,100  Level Denver Center
Mon 09:18:24 AM 43.4744 -107.0058 304° West 138 159 12,100  Level Denver Center
Mon 09:19:25 AM 43.4933 -107.0453 303° West 131 151 12,100  Level Denver Center
Mon 09:20:26 AM 43.5156 -107.0858 307° West 121 139 12,100  Level Denver Center
Mon 09:21:27 AM 43.5347 -107.1206 307° West 119 137 12,100  Level Denver Center
Mon 09:22:28 AM 43.5539 -107.1578 305° West 123 142 12,100  Level Denver Center
Mon 09:23:29 AM 43.5783 -107.1989 309° West 124 143 12,100  Level Denver Center
Mon 09:24:30 AM 43.5939 -107.2336 302° West 114 131 12,100  Level Denver Center
Mon 09:25:31 AM 43.6108 -107.2692 303° West 115 132 12,100 -47 Level Denver Center
Mon 09:26:37 AM 43.6325 -107.3133 304° West 123 142 12,000 -48 Descending Salt Lake Center
Mon 09:27:37 AM 43.6575 -107.3553 309° West 127 146 12,000  Level Salt Lake Center
Mon 09:28:38 AM 43.6775 -107.3922 307° West 126 145 12,000  Level Salt Lake Center
Mon 09:29:39 AM 43.6953 -107.4289 304° West 121 139 12,000  Level Salt Lake Center
Mon 09:30:40 AM 43.7186 -107.4711 307° West 122 140 12,000  Level Salt Lake Center
Mon 09:31:41 AM 43.7375 -107.5078 305° West 123 142 12,000  Level Salt Lake Center
Mon 09:32:42 AM 43.7583 -107.5447 308° West 124 143 12,000  Level Salt Lake Center
Mon 09:33:43 AM 43.7814 -107.5886 306° West 125 144 12,000  Level Salt Lake Center
Mon 09:34:44 AM 43.8008 -107.6272 305° West 126 145 12,000  Level Salt Lake Center
Mon 09:35:45 AM 43.8211 -107.6658 306° West 128 147 12,000  Level Salt Lake Center
Mon 09:36:46 AM 43.8456 -107.7117 306° West 130 150 12,000  Level Salt Lake Center
Mon 09:37:48 AM 43.8669 -107.7522 306° West 132 152 12,000  Level Salt Lake Center
Mon 09:38:49 AM 43.8931 -107.7989 308° West 135 155 12,000  Level Salt Lake Center
Mon 09:39:50 AM 43.9139 -107.8411 304° West 137 158 12,000  Level Salt Lake Center
Mon 09:40:51 AM 43.9350 -107.8825 305° West 138 159 12,000  Level Salt Lake Center
Mon 09:41:52 AM 43.9597 -107.9317 305° West 138 159 12,000  Level Salt Lake Center
Mon 09:42:53 AM 43.9817 -107.9728 307° West 138 159 12,000 49 Level Salt Lake Center
Mon 09:43:54 AM 44.0031 -108.0150 305° West 138 159 12,100 49 Climbing Salt Lake Center
Mon 09:44:55 AM 44.0281 -108.0636 306° West 138 159 12,100 -49 Level Salt Lake Center
Mon 09:45:56 AM 44.0514 -108.1067 307° West 141 162 12,000 -49 Descending Salt Lake Center
Mon 09:46:57 AM 44.0742 -108.1508 306° West 144 166 12,000  Level Salt Lake Center
Mon 09:47:58 AM 44.1011 -108.2025 306° West 146 168 12,000  Level Salt Lake Center
Mon 09:48:59 AM 44.1242 -108.2467 306° West 147 169 12,000 49 Level Salt Lake Center
Mon 09:50:00 AM 44.1464 -108.2919 304° West 147 169 12,100  Climbing Salt Lake Center
Mon 09:51:01 AM 44.1736 -108.3433 306° West 147 169 12,000 -49 Descending Salt Lake Center
Mon 09:52:03 AM 44.1956 -108.3869 305° West 146 168 12,000 -98 Level Salt Lake Center
Mon 09:53:04 AM 44.2225 -108.4378 306° West 145 167 11,800 -246 Descending Salt Lake Center
Mon 09:54:05 AM 44.2461 -108.4822 307° West 147 169 11,500 -295 Descending Salt Lake Center
Mon 09:55:06 AM 44.2681 -108.5275 304° West 147 169 11,200 -246 Descending Salt Lake Center
Mon 09:56:07 AM 44.2956 -108.5817 305° West 150 173 11,000 -197 Descending Salt Lake Center
Mon 09:57:08 AM 44.3197 -108.6269 307° West 151 174 10,800 -197 Descending Salt Lake Center

Login

Don't have an account? Register now (free) for customized features, flight alerts, and more!